createdAt,value
2022-11-29T00:01:03.631Z,81966.59
2022-11-29T00:02:37.369Z,81958.69
2022-11-29T00:04:12.209Z,81980.47
2022-11-29T00:05:49.169Z,81982.44
2022-11-29T00:07:22.815Z,81998.28
2022-11-29T00:08:58.126Z,81990.38
2022-11-29T00:10:31.673Z,81990.38
2022-11-29T00:12:14.158Z,81980.47
2022-11-29T00:13:47.811Z,82014.13
2022-11-29T00:15:21.811Z,81992.34
2022-11-29T00:16:59.633Z,81988.38
2022-11-29T00:18:39.491Z,81986.41
2022-11-29T00:20:14.338Z,81990.38
2022-11-29T00:21:48.650Z,81986.41
2022-11-29T00:23:22.942Z,81974.53
2022-11-29T00:24:59.924Z,81978.47
2022-11-29T00:26:37.688Z,81978.47
2022-11-29T00:28:12.067Z,81980.47
2022-11-29T00:29:45.666Z,81966.59
2022-11-29T00:31:22.793Z,81966.59
2022-11-29T00:32:56.858Z,81972.53
2022-11-29T00:34:30.912Z,81980.47
2022-11-29T00:36:04.650Z,82006.19
2022-11-29T00:37:38.808Z,82006.19
2022-11-29T00:39:13.794Z,82065.59
2022-11-29T00:40:52.303Z,82026.00
2022-11-29T00:42:26.327Z,82037.88
2022-11-29T00:43:59.785Z,82047.78
2022-11-29T00:45:33.893Z,82057.69
2022-11-29T00:47:07.788Z,82099.25
2022-11-29T00:48:41.925Z,82065.59
2022-11-29T00:50:15.377Z,82053.72
2022-11-29T00:51:48.816Z,82063.63
2022-11-29T00:53:22.835Z,82061.66
2022-11-29T00:54:56.705Z,82047.78
2022-11-29T00:56:30.517Z,82041.84
2022-11-29T00:58:04.338Z,82049.75
2022-11-29T00:59:38.375Z,82061.66
2022-11-29T01:01:12.821Z,82057.69
2022-11-29T01:02:47.423Z,82077.47
2022-11-29T01:04:26.066Z,82069.56
2022-11-29T01:06:12.183Z,82067.59
2022-11-29T01:07:49.393Z,82061.66
2022-11-29T01:09:23.096Z,82069.56
2022-11-29T01:11:03.752Z,82069.56
2022-11-29T01:12:39.432Z,82075.50
2022-11-29T01:14:16.083Z,82073.53
2022-11-29T01:15:57.133Z,82081.44
2022-11-29T01:17:30.497Z,82071.53
2022-11-29T01:19:04.514Z,82073.53
2022-11-29T01:20:39.261Z,82083.44
2022-11-29T01:22:16.841Z,82077.47
2022-11-29T01:23:51.715Z,82077.47
2022-11-29T01:25:25.616Z,82083.44
2022-11-29T01:26:59.327Z,82077.47
2022-11-29T01:28:34.059Z,82075.50
2022-11-29T01:30:09.627Z,82093.31
2022-11-29T01:31:45.825Z,82087.38
2022-11-29T01:33:20.034Z,82097.28
2022-11-29T01:34:53.945Z,82101.25
2022-11-29T01:36:28.634Z,82107.19
2022-11-29T01:38:02.003Z,82121.06
2022-11-29T01:39:35.990Z,82113.13
2022-11-29T01:41:14.508Z,82136.88
2022-11-29T01:42:51.203Z,82115.09
2022-11-29T01:44:24.652Z,82134.91
2022-11-29T01:45:59.081Z,82172.53
2022-11-29T01:47:43.085Z,82146.78
2022-11-29T01:49:18.539Z,82150.75
2022-11-29T01:50:56.868Z,82160.66
2022-11-29T01:52:38.175Z,82154.72
2022-11-29T01:54:14.568Z,82160.66
2022-11-29T01:55:53.717Z,82166.59
2022-11-29T01:57:27.973Z,82148.78
2022-11-29T01:59:06.320Z,82146.78
2022-11-29T02:00:40.360Z,82130.94
2022-11-29T02:02:17.437Z,82128.97
2022-11-29T02:03:51.078Z,82132.94
2022-11-29T02:05:28.831Z,82136.88
2022-11-29T02:07:03.003Z,82125.00
2022-11-29T02:08:40.786Z,82115.09
2022-11-29T02:10:16.201Z,82109.16
2022-11-29T02:12:23.994Z,82099.25
2022-11-29T02:14:26.100Z,82091.34
2022-11-29T02:16:35.288Z,82097.28
2022-11-29T02:18:16.222Z,82107.19
2022-11-29T02:20:23.771Z,82109.16
2022-11-29T02:22:14.605Z,82093.31
2022-11-29T02:24:29.847Z,82087.38
2022-11-29T02:26:24.736Z,82089.38
2022-11-29T02:28:25.307Z,82085.41
2022-11-29T02:30:05.522Z,82113.13
2022-11-29T02:32:09.058Z,82142.84
2022-11-29T02:34:07.167Z,82140.84
2022-11-29T02:36:02.358Z,82156.69
2022-11-29T02:37:57.475Z,82164.63
2022-11-29T02:39:40.345Z,82172.53
2022-11-29T02:41:21.410Z,82182.44
2022-11-29T02:43:32.089Z,82190.34
2022-11-29T02:45:33.798Z,82210.16
2022-11-29T02:47:44.388Z,82224.00
2022-11-29T02:49:36.662Z,82235.91
2022-11-29T02:51:28.843Z,82235.91
2022-11-29T02:53:07.424Z,82237.88
2022-11-29T02:55:09.899Z,82226.00
2022-11-29T02:56:59.406Z,82231.94
2022-11-29T02:58:45.238Z,82229.97
2022-11-29T03:00:23.662Z,82231.94
2022-11-29T03:02:12.502Z,82261.63
2022-11-29T03:04:07.403Z,82239.84
2022-11-29T03:05:48.777Z,82245.81
2022-11-29T03:07:50.922Z,82239.84
2022-11-29T03:10:09.331Z,82216.09
2022-11-29T03:12:03.649Z,82220.06
2022-11-29T03:14:01.306Z,82214.13
2022-11-29T03:15:48.963Z,82224.00
2022-11-29T03:17:37.360Z,82218.06
2022-11-29T03:19:57.882Z,82220.06
2022-11-29T03:22:10.467Z,82216.09
2022-11-29T03:24:09.866Z,82202.22
2022-11-29T03:26:03.316Z,82184.41
2022-11-29T03:28:15.129Z,82192.34
2022-11-29T03:29:54.147Z,82188.38
2022-11-29T03:31:30.845Z,82160.66
2022-11-29T03:33:18.211Z,82154.72
2022-11-29T03:35:19.976Z,82178.47
2022-11-29T03:37:15.162Z,82206.19
2022-11-29T03:38:49.503Z,82216.09
2022-11-29T03:40:30.403Z,82231.94
2022-11-29T03:42:09.358Z,82231.94
2022-11-29T03:44:16.065Z,82235.91
2022-11-29T03:46:40.974Z,82251.75
2022-11-29T03:48:40.426Z,82245.81
2022-11-29T03:50:34.709Z,82247.78
2022-11-29T03:52:23.026Z,82261.63
2022-11-29T03:54:03.239Z,82311.16
2022-11-29T03:56:04.832Z,82247.78
2022-11-29T03:58:16.444Z,82247.78
2022-11-29T03:59:56.345Z,82243.81
2022-11-29T04:01:48.159Z,82247.78
2022-11-29T04:04:11.726Z,82251.75
2022-11-29T04:06:09.628Z,82245.81
2022-11-29T04:08:30.324Z,82241.84
2022-11-29T04:10:15.671Z,82231.94
2022-11-29T04:12:10.466Z,82229.97
2022-11-29T04:13:59.188Z,82241.84
2022-11-29T04:15:51.033Z,82243.81
2022-11-29T04:17:42.804Z,82241.84
2022-11-29T04:19:35.304Z,82231.94
2022-11-29T04:21:52.905Z,82218.06
2022-11-29T04:23:58.080Z,82224.00
2022-11-29T04:25:49.525Z,82255.69
2022-11-29T04:27:54.934Z,82222.03
2022-11-29T04:29:49.551Z,82220.06
2022-11-29T04:31:52.935Z,82208.19
2022-11-29T04:33:35.097Z,82208.19
2022-11-29T04:35:27.123Z,82188.38
2022-11-29T04:37:04.462Z,82182.44
2022-11-29T04:38:57.760Z,82089.38
2022-11-29T04:41:03.186Z,81879.47
2022-11-29T04:42:56.013Z,81740.88
2022-11-29T04:44:47.317Z,81691.38
2022-11-29T04:46:48.980Z,81598.34
2022-11-29T04:48:25.838Z,81558.72
2022-11-29T04:50:08.392Z,81612.19
2022-11-29T04:52:00.082Z,81493.41
2022-11-29T04:54:10.200Z,81398.38
2022-11-29T04:56:08.690Z,81234.06
2022-11-29T04:58:07.726Z,81170.69
2022-11-29T05:00:10.499Z,81166.75
2022-11-29T05:02:21.315Z,81170.69
2022-11-29T05:04:06.818Z,81135.06
2022-11-29T05:06:09.560Z,81071.72
2022-11-29T05:07:54.511Z,80992.53
2022-11-29T05:09:51.855Z,81020.25
2022-11-29T05:11:26.986Z,80994.50
2022-11-29T05:13:19.220Z,81036.09
2022-11-29T05:15:14.649Z,81006.41
2022-11-29T05:17:36.816Z,80915.34
2022-11-29T05:19:38.671Z,80893.56
2022-11-29T05:21:40.312Z,80929.19
2022-11-29T05:23:38.471Z,80943.06
2022-11-29T05:25:14.825Z,80992.53
2022-11-29T05:27:29.031Z,80976.69
2022-11-29T05:29:05.150Z,80879.69
2022-11-29T05:31:07.438Z,80881.69
2022-11-29T05:32:58.330Z,80875.75
2022-11-29T05:34:37.719Z,80842.09
2022-11-29T05:36:30.076Z,80939.09
2022-11-29T05:38:31.109Z,81097.47
2022-11-29T05:40:29.085Z,81234.06
2022-11-29T05:42:20.733Z,81277.59
2022-11-29T05:44:25.242Z,81348.88
2022-11-29T05:46:09.050Z,81333.03
2022-11-29T05:47:53.199Z,81214.25
2022-11-29T05:49:44.945Z,81174.66
2022-11-29T05:51:39.458Z,81226.13
2022-11-29T05:53:28.659Z,81331.06
2022-11-29T05:55:20.892Z,81253.84
2022-11-29T05:57:18.050Z,81238.00
2022-11-29T05:58:55.098Z,81220.19
2022-11-29T06:00:35.566Z,81273.66
2022-11-29T06:02:27.989Z,81342.94
2022-11-29T06:04:15.165Z,81309.28
2022-11-29T06:06:01.592Z,81148.94
2022-11-29T06:07:35.164Z,81263.75
2022-11-29T06:09:19.624Z,81267.72
2022-11-29T06:11:10.208Z,81309.28
2022-11-29T06:12:49.750Z,81202.38
2022-11-29T06:14:53.179Z,81135.06
2022-11-29T06:16:35.421Z,81135.06
2022-11-29T06:18:49.083Z,81091.53
2022-11-29T06:20:36.320Z,81103.41
2022-11-29T06:22:22.214Z,81123.19
2022-11-29T11:21:08.550Z,81475.59
2022-11-29T11:22:41.746Z,81473.59
2022-11-29T11:24:44.191Z,81473.59
2022-11-29T11:26:18.607Z,81491.41
2022-11-29T11:27:52.828Z,81471.63
2022-11-29T11:29:38.936Z,81473.59
2022-11-29T11:31:13.664Z,81503.28
2022-11-29T11:33:09.509Z,81534.97
2022-11-29T11:35:01.956Z,81544.88
2022-11-29T11:36:37.580Z,81546.84
2022-11-29T11:38:18.410Z,81548.84
2022-11-29T11:39:57.665Z,81542.91
2022-11-29T11:41:54.572Z,81556.75
2022-11-29T11:43:28.319Z,81558.72
2022-11-29T11:45:03.809Z,81590.41
2022-11-29T11:46:53.209Z,81586.44
2022-11-29T11:48:27.562Z,81610.22
2022-11-29T11:50:07.646Z,81626.03
2022-11-29T11:51:44.764Z,81616.16
2022-11-29T11:53:38.360Z,81628.03
2022-11-29T11:55:35.161Z,81649.81
2022-11-29T11:57:21.564Z,81628.03
2022-11-29T11:58:58.137Z,81637.94
2022-11-29T12:02:41.482Z,81641.88
2022-11-29T12:04:28.091Z,81641.88
2022-11-29T12:06:43.597Z,81659.72
2022-11-29T12:08:18.223Z,81669.59
2022-11-29T12:10:03.755Z,81697.31
2022-11-29T12:12:20.913Z,81679.50
2022-11-29T12:14:22.457Z,81685.44
2022-11-29T12:16:29.059Z,81695.34
2022-11-29T12:18:26.746Z,81681.47
2022-11-29T12:20:41.294Z,81703.25
2022-11-29T12:22:47.897Z,81707.22
2022-11-29T12:24:51.473Z,81719.09
2022-11-29T12:26:59.919Z,81717.13
2022-11-29T12:28:53.835Z,81723.06
2022-11-29T12:31:23.804Z,81719.09
2022-11-29T12:33:26.163Z,81717.13
2022-11-29T12:35:27.685Z,81725.03
2022-11-29T12:37:32.150Z,81707.22
2022-11-29T12:39:36.474Z,81725.03
2022-11-29T12:41:58.768Z,81738.91
2022-11-29T12:44:21.931Z,81736.91
2022-11-29T12:46:26.484Z,81746.81
2022-11-29T12:48:39.618Z,81744.84
2022-11-29T12:50:46.590Z,81742.88
2022-11-29T12:52:57.660Z,81752.75
2022-11-29T12:55:09.867Z,81768.59
2022-11-29T12:57:33.257Z,81778.50
2022-11-29T13:00:09.191Z,81770.59
2022-11-29T13:02:30.044Z,81788.41
2022-11-29T13:04:59.629Z,81788.41
2022-11-29T13:07:23.212Z,81786.41
2022-11-29T13:09:18.267Z,81804.25
2022-11-29T13:11:20.265Z,81804.25
2022-11-29T13:13:32.392Z,81800.28
2022-11-29T13:16:05.183Z,81812.16
2022-11-29T13:18:05.946Z,81818.09
2022-11-29T13:20:05.818Z,81820.09
2022-11-29T13:22:07.299Z,81824.03
2022-11-29T13:24:09.828Z,81822.06
2022-11-29T13:26:08.863Z,81828.00
2022-11-29T13:28:07.891Z,81839.88
2022-11-29T13:30:05.155Z,81835.91
2022-11-29T13:31:58.532Z,81828.00
2022-11-29T13:34:20.962Z,81837.91
2022-11-29T13:36:15.873Z,81835.91
2022-11-29T13:38:22.371Z,81857.69
2022-11-29T13:40:32.394Z,81843.84
2022-11-29T13:42:24.439Z,81855.72
2022-11-29T13:44:31.677Z,81853.75
2022-11-29T13:47:11.527Z,81851.75
2022-11-29T13:49:03.648Z,81859.69
2022-11-29T13:50:57.497Z,81863.63
2022-11-29T13:52:49.459Z,81859.69
2022-11-29T13:54:41.895Z,81869.59
2022-11-29T13:56:48.365Z,81875.53
2022-11-29T13:58:40.921Z,81885.41
2022-11-29T14:00:45.907Z,81875.53
2022-11-29T14:02:37.800Z,81877.50
2022-11-29T14:04:39.703Z,81883.44
2022-11-29T14:06:42.118Z,81881.47
2022-11-29T14:09:16.792Z,81887.41
2022-11-29T14:10:55.142Z,81895.31
2022-11-29T14:12:58.160Z,81899.28
2022-11-29T14:14:57.310Z,81905.22
2022-11-29T14:17:00.456Z,81901.25
2022-11-29T14:19:20.733Z,81915.13
2022-11-29T14:21:13.294Z,81915.13
2022-11-29T14:23:05.376Z,81921.06
2022-11-29T14:25:49.652Z,81911.16
2022-11-29T14:27:34.046Z,81921.06
2022-11-29T14:29:54.137Z,81915.13
2022-11-29T14:31:53.965Z,81934.91
2022-11-29T14:33:59.214Z,81942.84
2022-11-29T14:36:06.813Z,81930.97
2022-11-29T14:38:11.686Z,81928.97
2022-11-29T14:40:35.323Z,81919.09
2022-11-29T14:42:28.938Z,81934.91
2022-11-29T14:44:24.879Z,81925.03
2022-11-29T14:46:17.023Z,81927.00
2022-11-29T14:48:27.700Z,81930.97
2022-11-29T14:50:36.327Z,81942.84
2022-11-29T14:52:36.858Z,81938.88
2022-11-29T14:54:29.397Z,81938.88
2022-11-29T14:56:39.484Z,81938.88
2022-11-29T14:58:31.702Z,81934.91
2022-11-29T15:00:35.619Z,81954.72
2022-11-29T15:02:31.151Z,81942.84
2022-11-29T15:04:26.106Z,81950.75
2022-11-29T15:06:26.419Z,81978.47
2022-11-29T15:08:24.173Z,81946.81
2022-11-29T15:10:30.531Z,81942.84
2022-11-29T15:12:29.765Z,81944.81
2022-11-29T15:14:44.182Z,81950.75
2022-11-29T15:16:51.512Z,81960.66
2022-11-29T15:19:17.788Z,81958.69
2022-11-29T15:21:21.026Z,81962.66
2022-11-29T15:23:19.724Z,81950.75
2022-11-29T15:25:14.281Z,81946.81
2022-11-29T15:27:06.391Z,81938.88
2022-11-29T15:29:21.860Z,81952.75
2022-11-29T15:31:18.642Z,81944.81
2022-11-29T15:33:23.253Z,81936.91
2022-11-29T15:35:19.913Z,81942.84
2022-11-29T15:37:40.094Z,81946.81
2022-11-29T15:39:35.641Z,81934.91
2022-11-29T15:41:30.963Z,81942.84
2022-11-29T15:43:30.834Z,81970.56
2022-11-29T15:45:34.926Z,82004.22
2022-11-29T15:47:27.995Z,81944.81
2022-11-29T15:49:27.683Z,81948.78
2022-11-29T15:51:31.186Z,81948.78
2022-11-29T15:53:50.371Z,81948.78
2022-11-29T15:55:44.837Z,81968.59
2022-11-29T15:57:41.235Z,81960.66
2022-11-29T15:59:44.567Z,81954.72
2022-11-29T16:01:38.108Z,81950.75
2022-11-29T16:03:33.492Z,81960.66
2022-11-29T16:05:38.990Z,81966.59
2022-11-29T16:07:32.951Z,81964.63
2022-11-29T16:09:39.728Z,81958.69
2022-11-29T16:11:32.515Z,81966.59
2022-11-29T16:13:32.056Z,81978.47
2022-11-29T16:15:36.317Z,81976.50
2022-11-29T16:17:33.871Z,81970.56
2022-11-29T16:19:37.442Z,81966.59
2022-11-29T16:21:32.508Z,81956.69
2022-11-29T16:23:34.901Z,81954.72
2022-11-29T16:25:27.927Z,81968.59
2022-11-29T16:27:22.258Z,81952.75
2022-11-29T16:29:27.205Z,81952.75
2022-11-29T16:31:21.267Z,81946.81
2022-11-29T16:33:24.416Z,81927.00
2022-11-29T16:35:22.782Z,81921.06
2022-11-29T16:37:25.348Z,81946.81
2022-11-29T16:39:24.206Z,81946.81
2022-11-29T16:41:35.300Z,81954.72
2022-11-29T16:43:54.312Z,81946.81
2022-11-29T16:45:47.332Z,81940.84
2022-11-29T16:47:58.697Z,81946.81
2022-11-29T16:50:03.498Z,81932.94
2022-11-29T16:51:58.688Z,81976.50
2022-11-29T16:53:54.653Z,81946.81
2022-11-29T16:55:46.696Z,81942.84
2022-11-29T16:57:39.205Z,81942.84
2022-11-29T16:59:32.524Z,81930.97
2022-11-29T17:01:32.006Z,81932.94
2022-11-29T17:03:24.682Z,81942.84
2022-11-29T17:05:16.436Z,81946.81
2022-11-29T17:07:15.836Z,81942.84
2022-11-29T17:09:08.342Z,81928.97
2022-11-29T17:11:00.729Z,81994.31
2022-11-29T17:12:52.453Z,81919.09
2022-11-29T17:14:44.582Z,81925.03
2022-11-29T17:16:36.562Z,81942.84
2022-11-29T17:18:34.386Z,81946.81
2022-11-29T17:20:27.550Z,81978.47
2022-11-29T17:22:19.904Z,81938.88
2022-11-29T17:24:14.321Z,81942.84
2022-11-29T17:26:06.801Z,81938.88
2022-11-29T17:27:58.362Z,81932.94
2022-11-29T17:29:50.414Z,81944.81
2022-11-29T17:31:44.433Z,81954.72
2022-11-29T17:33:36.157Z,81946.81
2022-11-29T17:35:27.744Z,81960.66
2022-11-29T17:37:21.329Z,81998.28
2022-11-29T17:39:17.918Z,81954.72
2022-11-29T17:41:14.617Z,81990.38
2022-11-29T17:43:07.607Z,81954.72
2022-11-29T17:45:00.072Z,81940.84
2022-11-29T17:46:52.355Z,81942.84
2022-11-29T17:48:48.214Z,81978.47
2022-11-29T17:50:39.969Z,81938.88
2022-11-29T17:52:32.465Z,81938.88
2022-11-29T17:54:24.597Z,81923.03
2022-11-29T17:56:19.435Z,81934.91
2022-11-29T17:58:13.108Z,81942.84
2022-11-29T18:00:08.515Z,81942.84
2022-11-29T18:02:02.346Z,81950.75
2022-11-29T18:03:56.468Z,82029.97
2022-11-29T18:05:48.008Z,81984.44
2022-11-29T18:07:58.201Z,81994.31
2022-11-29T18:09:51.229Z,81996.31
2022-11-29T18:11:48.520Z,82006.19
2022-11-29T18:13:41.435Z,81996.31
2022-11-29T18:15:33.850Z,81986.41
2022-11-29T18:17:26.102Z,81986.41
2022-11-29T18:19:21.656Z,81986.41
2022-11-29T18:21:14.819Z,81946.81
2022-11-29T18:23:08.253Z,81948.78
2022-11-29T18:25:30.092Z,81936.91
2022-11-29T18:27:10.969Z,81946.81
2022-11-29T18:29:03.691Z,81936.91
2022-11-29T18:30:55.202Z,81938.88
2022-11-29T18:32:46.673Z,81932.94
2022-11-29T18:34:38.983Z,81934.91
2022-11-29T18:36:33.155Z,81917.09
2022-11-29T18:38:24.821Z,81915.13
2022-11-29T18:40:17.801Z,81909.19
2022-11-29T18:42:09.968Z,81905.22
2022-11-29T18:44:07.990Z,81911.16
2022-11-29T18:45:59.896Z,81930.97
2022-11-29T18:47:52.158Z,81942.84
2022-11-29T18:49:44.218Z,81952.75
2022-11-29T18:51:40.166Z,81962.66
2022-11-29T18:53:33.617Z,81992.34
2022-11-29T18:55:26.696Z,81984.44
2022-11-29T18:57:19.067Z,82014.13
2022-11-29T18:59:17.446Z,82020.06
2022-11-29T19:01:20.203Z,82008.19
2022-11-29T19:03:12.175Z,82022.03
2022-11-29T19:05:04.160Z,82026.00
2022-11-29T19:06:56.654Z,82043.81
2022-11-29T19:08:49.672Z,82014.13
2022-11-29T19:10:41.555Z,82014.13
2022-11-29T19:12:33.662Z,82039.88
2022-11-29T19:14:25.480Z,82002.25
2022-11-29T19:16:19.526Z,82014.13
2022-11-29T19:18:11.498Z,82026.00
2022-11-29T19:20:03.460Z,82022.03
2022-11-29T19:21:55.346Z,82018.09
2022-11-29T19:23:55.585Z,82006.19
2022-11-29T19:25:49.286Z,82012.16
2022-11-29T19:27:45.790Z,82022.03
2022-11-29T19:29:39.788Z,82002.25
2022-11-29T19:31:32.189Z,81998.28
2022-11-29T19:33:24.359Z,82006.19
2022-11-29T19:35:16.420Z,81962.66
2022-11-29T19:37:09.905Z,81942.84
2022-11-29T19:39:02.709Z,81950.75
2022-11-29T19:40:54.905Z,81942.84
2022-11-29T19:42:50.796Z,81930.97
2022-11-29T19:45:14.850Z,81930.97
2022-11-29T19:46:54.648Z,81913.13
2022-11-29T19:48:47.504Z,81915.13
2022-11-29T19:50:39.217Z,81962.66
2022-11-29T19:52:31.494Z,81923.03
2022-11-29T19:54:23.630Z,81946.81
2022-11-29T19:56:17.581Z,81988.38
2022-11-29T19:58:09.185Z,81982.44
2022-11-29T20:00:01.461Z,81984.44
2022-11-29T20:02:03.641Z,82014.13
2022-11-29T20:03:59.436Z,82014.13
2022-11-29T20:05:56.028Z,82031.94
2022-11-29T20:07:48.021Z,82047.78
2022-11-29T20:09:40.553Z,82081.44
2022-11-29T20:11:33.406Z,82097.28
2022-11-29T20:13:25.059Z,82075.50
2022-11-29T20:15:16.818Z,82051.75
2022-11-29T20:17:08.601Z,82047.78
2022-11-29T20:19:02.130Z,82037.88
2022-11-29T20:20:54.289Z,82041.84
2022-11-29T20:22:46.055Z,82014.13
2022-11-29T20:24:43.933Z,82026.00
2022-11-29T20:26:40.207Z,82012.16
2022-11-29T20:28:32.265Z,82010.16
2022-11-29T20:30:24.328Z,82016.09
2022-11-29T20:32:17.452Z,81998.28
2022-11-29T20:34:15.038Z,82010.16
2022-11-29T20:36:33.450Z,81998.28
2022-11-29T20:39:06.911Z,81994.31
2022-11-29T20:41:13.615Z,82027.97
2022-11-29T20:43:33.494Z,82024.03
2022-11-29T20:45:26.038Z,82027.97
2022-11-29T20:47:20.061Z,81982.44
2022-11-29T20:49:14.676Z,82041.84
2022-11-29T20:51:08.158Z,82057.69
2022-11-29T20:53:18.734Z,82081.44
2022-11-29T20:55:10.685Z,82083.44
2022-11-29T20:57:03.018Z,81962.66
2022-11-29T20:58:56.756Z,82035.91
2022-11-29T21:00:48.807Z,82033.94
2022-11-29T21:02:41.137Z,82027.97
2022-11-29T21:04:33.061Z,82002.25
2022-11-29T21:06:24.918Z,82004.22
2022-11-29T21:08:22.164Z,81998.28
2022-11-29T21:10:17.393Z,82006.19
2022-11-29T21:12:10.151Z,82018.09
2022-11-29T21:14:04.476Z,82049.75
2022-11-29T21:15:56.800Z,82039.88
2022-11-29T21:17:51.805Z,82035.91
2022-11-29T21:19:44.043Z,82014.13
2022-11-29T21:21:45.662Z,82004.22
2022-11-29T21:24:00.699Z,82008.19
2022-11-29T21:26:16.107Z,82006.19
2022-11-29T21:28:16.216Z,82004.22
2022-11-29T21:30:20.317Z,82006.19
2022-11-29T21:32:22.617Z,81982.44
2022-11-29T21:34:15.262Z,81978.47
2022-11-29T21:36:09.661Z,81994.31
2022-11-29T21:38:03.096Z,81962.66
2022-11-29T21:39:56.759Z,81974.53
2022-11-29T21:41:48.991Z,82020.06
2022-11-29T21:44:05.465Z,82022.03
2022-11-29T21:45:53.392Z,82014.13
2022-11-29T21:47:45.920Z,82010.16
2022-11-29T21:49:38.044Z,82026.00
2022-11-29T21:51:29.811Z,82006.19
2022-11-29T21:53:21.834Z,82000.25
2022-11-29T21:55:13.777Z,82018.09
2022-11-29T21:57:05.696Z,82033.94
2022-11-29T21:58:58.097Z,82033.94
2022-11-29T22:00:50.077Z,82031.94
2022-11-29T22:02:42.691Z,82024.03
2022-11-29T22:04:34.660Z,82039.88
2022-11-29T22:06:28.250Z,82033.94
2022-11-29T22:08:20.899Z,82041.84
2022-11-29T22:10:13.737Z,82029.97
2022-11-29T22:12:19.763Z,82031.94
2022-11-29T22:14:18.879Z,82033.94
2022-11-29T22:16:11.464Z,82026.00
2022-11-29T22:18:03.523Z,82033.94
2022-11-29T22:19:55.152Z,82029.97
2022-11-29T22:21:49.040Z,82057.69
2022-11-29T22:23:41.549Z,82008.19
2022-11-29T22:25:33.672Z,82008.19
2022-11-29T22:27:25.122Z,82027.97
2022-11-29T22:29:17.908Z,82010.16
2022-11-29T22:31:11.717Z,81980.47
2022-11-29T22:33:04.925Z,81994.31
2022-11-29T22:34:58.981Z,82010.16
2022-11-29T22:36:50.776Z,81998.28
2022-11-29T22:38:42.961Z,81998.28
2022-11-29T22:40:35.162Z,82018.09
2022-11-29T22:42:26.719Z,82039.88
2022-11-29T22:44:18.701Z,82045.81
2022-11-29T22:46:18.596Z,82049.75
2022-11-29T22:48:11.075Z,82045.81
2022-11-29T22:50:02.624Z,82018.09
2022-11-29T22:51:55.291Z,82022.03
2022-11-29T22:53:52.617Z,82029.97
2022-11-29T22:55:44.712Z,82008.19
2022-11-29T22:57:36.699Z,82014.13
2022-11-29T22:59:28.782Z,82022.03
2022-11-29T23:01:29.626Z,82033.94
2022-11-29T23:03:21.911Z,82043.81
2022-11-29T23:05:14.133Z,82041.84
2022-11-29T23:07:08.315Z,82041.84
2022-11-29T23:09:06.013Z,82049.75
2022-11-29T23:10:59.920Z,82049.75
2022-11-29T23:12:51.706Z,82043.81
2022-11-29T23:14:45.235Z,82033.94
2022-11-29T23:16:37.879Z,82047.78
2022-11-29T23:18:30.096Z,82041.84
2022-11-29T23:20:22.051Z,82069.56
2022-11-29T23:22:14.421Z,82063.63
2022-11-29T23:24:07.812Z,82077.47
2022-11-29T23:26:00.463Z,82051.75
2022-11-29T23:27:54.485Z,82037.88
2022-11-29T23:29:46.503Z,82045.81
2022-11-29T23:31:38.845Z,82041.84
2022-11-29T23:33:31.353Z,82047.78
2022-11-29T23:35:23.370Z,82075.50
2022-11-29T23:37:15.416Z,82041.84
2022-11-29T23:39:07.801Z,82037.88
2022-11-29T23:40:59.245Z,82022.03
2022-11-29T23:42:54.164Z,82006.19
2022-11-29T23:44:46.594Z,82012.16
2022-11-29T23:46:38.887Z,81994.31
2022-11-29T23:48:31.607Z,81976.50
2022-11-29T23:50:25.022Z,81986.41
2022-11-29T23:52:16.857Z,81982.44
2022-11-29T23:54:09.179Z,81994.31
2022-11-29T23:56:04.260Z,81986.41
2022-11-29T23:57:56.307Z,81992.34
2022-11-29T23:59:50.699Z,81994.31
